Time;durP1;ratioP1;P1;durP2;ratioP2;P2;SDS_P1;SDS_P2;PMS_P1;PMS_P2;Temp;Humidity;BMP_temperature;BMP_pressure;BME280_temperature;BME280_humidity;BME280_pressure;Samples;Min_cycle;Max_cycle;Signal;HPM_P1;HPM_P2
2022/10/16 00:01:21;;;;;;;;;2.00;2.00;;;;;17.02;74.15;100365.84;5057745;28;45504;-63
2022/10/16 00:03:48;;;;;;;;;1.75;1.75;;;;;17.01;74.15;100372.13;5050609;28;45438;-63
2022/10/16 00:06:15;;;;;;;;;2.00;2.00;;;;;17.03;74.12;100372.00;5056954;28;45436;-65
2022/10/16 00:08:41;;;;;;;;;1.33;1.33;;;;;17.01;74.02;100374.78;5057820;28;45380;-63
2022/10/16 00:11:08;;;;;;;;;2.00;2.00;;;;;17.00;74.33;100375.72;5057387;28;46163;-65
2022/10/16 00:13:34;;;;;;;;;2.67;1.00;;;;;16.99;73.93;100369.56;5057992;28;45398;-65
2022/10/16 00:16:00;;;;;;;;;3.00;2.00;;;;;16.98;74.46;100375.00;5057842;28;45442;-65
2022/10/16 00:18:26;;;;;;;;;3.33;3.33;;;;;16.97;74.72;100384.75;5052206;28;45574;-65
2022/10/16 00:20:52;;;;;;;;;3.33;3.33;;;;;16.96;74.56;100395.50;5057681;28;46129;-64
2022/10/16 00:23:18;;;;;;;;;2.67;2.33;;;;;16.96;74.53;100392.84;5057715;28;45396;-65
2022/10/16 00:25:44;;;;;;;;;3.00;3.00;;;;;16.96;75.16;100385.72;5058163;28;45493;-65
2022/10/16 00:28:09;;;;;;;;;3.00;3.00;;;;;16.97;74.98;100394.53;5057670;28;45294;-66
2022/10/16 00:30:38;;;;;;;;;2.00;2.00;;;;;16.98;75.14;100399.75;5057722;28;45311;-66
2022/10/16 00:33:03;;;;;;;;;2.33;2.33;;;;;16.96;74.75;100388.38;5056947;28;45456;-65
2022/10/16 00:35:29;;;;;;;;;2.33;2.33;;;;;16.96;74.58;100388.38;5057862;28;45352;-63
2022/10/16 00:37:54;;;;;;;;;2.00;2.00;;;;;16.95;74.98;100392.00;5057493;28;45449;-63
2022/10/16 00:40:19;;;;;;;;;5.00;3.00;;;;;16.94;74.97;100400.88;5057422;28;46304;-64
2022/10/16 00:42:45;;;;;;;;;3.00;2.67;;;;;16.94;75.12;100394.72;5057524;28;45430;-65
2022/10/16 00:45:10;;;;;;;;;2.33;2.33;;;;;16.95;74.85;100405.28;5056878;28;45455;-63
2022/10/16 00:47:41;;;;;;;;;3.00;3.00;;;;;16.96;74.89;100412.28;5057617;28;45395;-66
2022/10/16 00:50:10;;;;;;;;;4.67;3.67;;;;;16.99;74.88;100424.50;5057431;28;46066;-65
2022/10/16 00:52:41;;;;;;;;;1.67;1.67;;;;;16.97;74.81;100413.97;5057176;28;45444;-65
2022/10/16 00:55:09;;;;;;;;;4.33;4.33;;;;;16.98;75.06;100402.41;5038307;28;45466;-65
2022/10/16 00:57:35;;;;;;;;;3.33;3.33;;;;;17.00;75.22;100405.78;5057302;28;45402;-66
2022/10/16 01:00:01;;;;;;;;;2.67;2.67;;;;;16.98;75.24;100410.38;5039208;28;47117;-65
2022/10/16 01:02:26;;;;;;;;;2.00;2.00;;;;;16.98;75.20;100407.72;5057267;28;45379;-63
2022/10/16 01:04:53;;;;;;;;;3.33;3.00;;;;;16.95;75.48;100397.31;5055848;28;45359;-64
2022/10/16 01:07:56;;;;;;;;;5.00;4.00;;;;;16.93;75.81;100398.34;5057103;28;45515;-65
2022/10/16 01:10:33;;;;;;;;;4.00;4.00;;;;;16.94;75.79;100392.06;5053110;28;45991;-65
2022/10/16 01:13:11;;;;;;;;;3.00;3.00;;;;;16.91;75.57;100401.09;5056884;28;45367;-65
2022/10/16 01:15:49;;;;;;;;;4.00;4.00;;;;;16.91;75.61;100411.72;5057217;28;45407;-63
2022/10/16 01:18:32;;;;;;;;;2.33;2.33;;;;;16.91;75.77;100411.72;5056925;28;45670;-65
2022/10/16 01:21:05;;;;;;;;;2.67;2.67;;;;;16.91;75.29;100410.88;5056892;28;45461;-65
2022/10/16 01:23:49;;;;;;;;;3.00;2.00;;;;;16.95;75.16;100415.91;5055763;28;45933;-65
2022/10/16 01:26:33;;;;;;;;;3.33;3.33;;;;;16.93;75.30;100422.25;5057094;28;45450;-65
2022/10/16 01:29:13;;;;;;;;;3.00;3.00;;;;;16.95;75.06;100412.38;5055321;28;45343;-63
2022/10/16 01:31:42;;;;;;;;;3.00;3.00;;;;;16.95;74.71;100417.69;5056681;28;46350;-65
2022/10/16 01:34:16;;;;;;;;;3.00;3.00;;;;;16.93;74.83;100428.41;5056955;28;45505;-65
2022/10/16 01:36:51;;;;;;;;;1.00;1.00;;;;;16.93;74.48;100422.25;5057198;28;45364;-64
2022/10/16 01:39:21;;;;;;;;;1.00;1.00;;;;;16.92;74.29;100426.69;5056504;28;45482;-66
2022/10/16 01:41:54;;;;;;;;;3.00;3.00;;;;;16.93;74.49;100423.09;5055252;28;45414;-63
2022/10/16 01:44:25;;;;;;;;;2.00;2.00;;;;;16.88;74.09;100419.88;5054893;28;45365;-63
2022/10/16 01:46:53;;;;;;;;;2.00;1.00;;;;;16.86;73.68;100412.97;5056646;28;45450;-64
2022/10/16 01:49:21;;;;;;;;;0.50;0.50;;;;;16.84;74.20;100410.41;5056653;28;45535;-63
2022/10/16 01:51:52;;;;;;;;;2.00;1.00;;;;;16.87;73.88;100419.97;5056361;28;45445;-64
2022/10/16 01:54:20;;;;;;;;;1.00;1.00;;;;;16.89;74.12;100416.28;5056451;28;45383;-66
2022/10/16 01:56:48;;;;;;;;;3.00;1.00;;;;;16.90;73.63;100420.66;5056377;28;45340;-65
2022/10/16 01:59:18;;;;;;;;;0.67;0.67;;;;;16.90;73.61;100425.09;5037763;28;45518;-64
2022/10/16 02:01:49;;;;;;;;;1.00;1.00;;;;;16.87;73.78;100412.88;5054504;28;45482;-64
2022/10/16 02:04:23;;;;;;;;;1.00;1.00;;;;;16.87;73.45;100414.66;5056650;28;45564;-65
2022/10/16 02:06:49;;;;;;;;;1.00;1.00;;;;;16.83;73.49;100418.47;5056370;28;45501;-66
2022/10/16 02:09:16;;;;;;;;;1.00;1.00;;;;;16.83;74.00;100424.66;5055163;28;45605;-64
2022/10/16 02:11:42;;;;;;;;;1.00;1.00;;;;;16.83;73.52;100414.03;5056275;28;46504;-63
2022/10/16 02:14:07;;;;;;;;;0.33;0.33;;;;;16.85;73.45;100417.44;5056086;28;45421;-65
2022/10/16 02:16:47;;;;;;;;;0.00;0.00;;;;;16.86;73.68;100426.25;5038230;28;45509;-64
2022/10/16 02:19:14;;;;;;;;;0.50;0.50;;;;;16.84;73.13;100431.66;5056080;28;45543;-64
2022/10/16 02:21:40;;;;;;;;;2.00;1.00;;;;;16.85;73.20;100430.72;5055849;28;45509;-65
2022/10/16 02:24:11;;;;;;;;;1.00;1.00;;;;;16.85;73.32;100419.25;5037028;28;45474;-64
2022/10/16 02:26:49;;;;;;;;;1.00;1.00;;;;;16.83;73.24;100418.47;5049386;28;45458;-63
2022/10/16 02:29:20;;;;;;;;;1.00;1.00;;;;;16.82;72.73;100422.94;5055858;28;45376;-65
2022/10/16 02:31:52;;;;;;;;;1.00;1.00;;;;;16.79;73.09;100420.47;5055104;28;45466;-64
2022/10/16 02:34:21;;;;;;;;;1.00;1.00;;;;;16.82;72.94;100436.22;5053025;28;45377;-64
2022/10/16 02:36:50;;;;;;;;;1.00;1.00;;;;;16.82;73.10;100438.00;5053987;28;45406;-64
2022/10/16 02:39:16;;;;;;;;;1.33;1.33;;;;;16.84;72.84;100436.97;5053465;28;45494;-66
2022/10/16 02:41:42;;;;;;;;;0.67;0.67;;;;;16.86;73.06;100436.88;5055723;28;46053;-64
2022/10/16 02:44:07;;;;;;;;;1.33;1.33;;;;;16.84;72.80;100428.16;5035338;28;45400;-66
2022/10/16 02:46:33;;;;;;;;;1.00;1.00;;;;;16.83;73.55;100435.28;5045764;28;45647;-66
2022/10/16 02:48:58;;;;;;;;;2.67;2.67;;;;;16.81;72.95;100436.31;5071860;28;45610;-66
2022/10/16 02:51:23;;;;;;;;;2.00;2.00;;;;;16.80;73.36;100446.09;5076087;28;45386;-62
2022/10/16 02:53:48;;;;;;;;;1.67;1.00;;;;;16.81;73.08;100444.28;5076033;28;45399;-63
2022/10/16 02:56:14;;;;;;;;;0.50;0.50;;;;;16.78;73.39;100446.19;5075720;28;50404;-66
2022/10/16 02:58:39;;;;;;;;;0.50;0.50;;;;;16.79;72.78;100444.38;5057717;28;45459;-64
2022/10/16 03:01:04;;;;;;;;;1.75;1.00;;;;;16.81;72.44;100449.59;5071023;28;57125;-66
2022/10/16 03:03:30;;;;;;;;;0.75;0.75;;;;;16.78;72.56;100451.50;5056046;28;45326;-65
2022/10/16 03:05:55;;;;;;;;;2.00;1.00;;;;;16.78;72.38;100461.25;5055635;28;45472;-64
2022/10/16 03:08:23;;;;;;;;;1.00;1.00;;;;;16.78;72.35;100461.25;5055230;28;49829;-65
2022/10/16 03:10:49;;;;;;;;;2.00;1.00;;;;;16.76;72.60;100460.47;5055347;28;45498;-67
2022/10/16 03:13:15;;;;;;;;;1.00;1.00;;;;;16.74;72.11;100457.09;5055432;28;45481;-66
2022/10/16 03:15:40;;;;;;;;;0.00;0.00;;;;;16.75;72.36;100456.97;5054471;28;45489;-65
2022/10/16 03:18:05;;;;;;;;;0.00;0.00;;;;;16.77;71.95;100455.09;5055414;28;45422;-65
2022/10/16 03:20:30;;;;;;;;;1.00;1.00;;;;;16.75;71.80;100464.94;5055273;28;45458;-63
2022/10/16 03:22:56;;;;;;;;;0.00;0.00;;;;;16.71;71.94;100458.13;5055151;28;45521;-65
2022/10/16 03:25:21;;;;;;;;;0.00;0.00;;;;;16.74;71.75;100467.72;5054209;28;45749;-65
2022/10/16 03:27:46;;;;;;;;;0.00;0.00;;;;;16.71;71.94;100454.59;5036885;28;50192;-61
2022/10/16 03:30:12;;;;;;;;;1.00;1.00;;;;;16.68;71.48;100458.28;5053861;28;46277;-61
2022/10/16 03:32:37;;;;;;;;;0.00;0.00;;;;;16.67;71.94;100445.97;5055288;28;45381;-63
2022/10/16 03:35:03;;;;;;;;;0.50;0.50;;;;;16.66;71.99;100431.00;5055255;28;45463;-62
2022/10/16 03:37:28;;;;;;;;;1.00;1.00;;;;;16.66;71.77;100428.34;5055159;28;45479;-61
2022/10/16 03:39:53;;;;;;;;;1.00;1.00;;;;;16.65;72.29;100423.13;5054734;28;59222;-63
2022/10/16 03:42:19;;;;;;;;;1.00;1.00;;;;;16.64;72.09;100429.41;5055257;28;45490;-64
2022/10/16 03:44:45;;;;;;;;;1.00;1.00;;;;;16.64;71.56;100435.56;5053786;28;45355;-63
2022/10/16 03:47:10;;;;;;;;;0.67;0.67;;;;;16.65;71.54;100423.97;5054442;28;45392;-64
2022/10/16 03:49:35;;;;;;;;;0.33;0.33;;;;;16.63;71.94;100433.88;5056912;28;51849;-64
2022/10/16 03:52:00;;;;;;;;;0.25;0.00;;;;;16.64;71.64;100438.22;5057436;28;45308;-63
2022/10/16 03:54:26;;;;;;;;;1.00;1.00;;;;;16.62;71.18;100439.25;5057348;28;45411;-63
2022/10/16 03:56:51;;;;;;;;;0.00;0.00;;;;;16.61;71.22;100434.91;5052534;28;45699;-64
2022/10/16 03:59:16;;;;;;;;;0.00;0.00;;;;;16.62;71.36;100448.06;5055980;28;59234;-64
2022/10/16 04:01:42;;;;;;;;;0.00;0.00;;;;;16.61;71.13;100450.84;5058345;28;45449;-63
2022/10/16 04:04:07;;;;;;;;;0.00;0.00;;;;;16.62;71.56;100452.53;5056214;28;45387;-62
2022/10/16 04:06:32;;;;;;;;;1.00;1.00;;;;;16.61;71.42;100443.72;5058394;28;45895;-64
2022/10/16 04:08:58;;;;;;;;;0.00;0.00;;;;;16.60;71.41;100444.66;5058171;28;45441;-64
2022/10/16 04:11:23;;;;;;;;;0.00;0.00;;;;;16.61;71.27;100446.38;5054333;28;45559;-65
2022/10/16 04:13:48;;;;;;;;;0.00;0.00;;;;;16.61;71.53;100440.22;5056976;28;45623;-62
2022/10/16 04:16:14;;;;;;;;;0.00;0.00;;;;;16.62;71.51;100452.53;5055955;28;45409;-63
2022/10/16 04:18:39;;;;;;;;;0.67;0.67;;;;;16.62;70.99;100447.22;5057920;28;45437;-62
2022/10/16 04:21:05;;;;;;;;;1.00;1.00;;;;;16.61;71.39;100457.00;5057917;28;45437;-64
2022/10/16 04:23:31;;;;;;;;;0.00;0.00;;;;;16.61;71.04;100448.19;5057447;28;45501;-63
2022/10/16 04:25:57;;;;;;;;;1.00;0.67;;;;;16.60;71.28;100446.47;5053674;28;45990;-62
2022/10/16 04:28:22;;;;;;;;;0.00;0.00;;;;;16.58;71.23;100451.88;5057945;28;46115;-64
2022/10/16 04:30:48;;;;;;;;;0.00;0.00;;;;;16.59;71.29;100464.19;5052431;28;45543;-64
2022/10/16 04:33:13;;;;;;;;;0.00;0.00;;;;;16.61;71.50;100466.78;5057586;28;45443;-65
2022/10/16 04:35:38;;;;;;;;;0.00;0.00;;;;;16.57;71.58;100466.94;5053820;28;49641;-63
2022/10/16 04:38:04;;;;;;;;;0.67;0.67;;;;;16.56;71.18;100485.63;5056952;28;46320;-64
2022/10/16 04:40:32;;;;;;;;;0.00;0.00;;;;;16.57;71.11;100498.78;5053518;28;45414;-65
2022/10/16 04:42:58;;;;;;;;;0.50;0.50;;;;;16.55;71.51;100492.75;5057934;28;45477;-64
2022/10/16 04:45:23;;;;;;;;;1.00;1.00;;;;;16.55;70.92;100494.56;5035669;28;45585;-62
2022/10/16 04:47:49;;;;;;;;;0.00;0.00;;;;;16.53;71.79;100494.63;5037433;28;46074;-62
2022/10/16 04:50:14;;;;;;;;;0.67;0.67;;;;;16.57;71.64;100497.94;5039044;28;45399;-62
2022/10/16 04:52:40;;;;;;;;;0.00;0.00;;;;;16.57;71.17;100504.09;5061844;28;45502;-63
2022/10/16 04:55:06;;;;;;;;;0.00;0.00;;;;;16.59;71.30;100512.00;5063706;28;45709;-64
2022/10/16 04:57:33;;;;;;;;;0.00;0.00;;;;;16.57;71.62;100511.22;5052586;28;45443;-65
2022/10/16 04:59:58;;;;;;;;;1.00;1.00;;;;;16.58;71.34;100512.94;5051293;28;45691;-62
2022/10/16 05:02:23;;;;;;;;;0.00;0.00;;;;;16.58;71.61;100526.22;5056412;28;45451;-64
2022/10/16 05:04:49;;;;;;;;;0.00;0.00;;;;;16.56;71.78;100528.97;5053728;28;45535;-64
2022/10/16 05:07:14;;;;;;;;;0.67;0.67;;;;;16.57;71.74;100540.44;5055453;28;45524;-65
2022/10/16 05:09:39;;;;;;;;;0.00;0.00;;;;;16.60;71.52;100529.63;5057200;28;45487;-62
2022/10/16 05:12:05;;;;;;;;;0.00;0.00;;;;;16.64;71.52;100532.97;5057041;28;45384;-65
2022/10/16 05:14:31;;;;;;;;;0.00;0.00;;;;;16.64;71.30;100532.97;5039206;28;45424;-63
2022/10/16 05:16:56;;;;;;;;;0.67;0.67;;;;;16.65;71.29;100527.53;5056825;28;46037;-65
2022/10/16 05:19:21;;;;;;;;;0.00;0.00;;;;;16.65;71.04;100524.88;5053427;28;45372;-63
2022/10/16 05:21:47;;;;;;;;;0.00;0.00;;;;;16.65;70.86;100537.31;5051913;28;45474;-64
2022/10/16 05:24:12;;;;;;;;;0.00;0.00;;;;;16.69;71.28;100552.13;5054331;28;45486;-65
2022/10/16 05:26:37;;;;;;;;;0.00;0.00;;;;;16.68;70.82;100550.41;5056394;28;46186;-61
2022/10/16 05:29:03;;;;;;;;;0.33;0.33;;;;;16.71;71.22;100558.16;5038464;28;45383;-62
2022/10/16 05:31:28;;;;;;;;;0.00;0.00;;;;;16.68;71.34;100558.34;5053308;28;45463;-63
2022/10/16 05:33:58;;;;;;;;;0.00;0.00;;;;;16.67;71.60;100557.50;5056508;28;45418;-64
2022/10/16 05:36:23;;;;;;;;;1.00;1.00;;;;;16.68;71.15;100556.56;5050349;28;45401;-62
2022/10/16 05:38:51;;;;;;;;;0.00;0.00;;;;;16.70;71.40;100562.63;5056332;28;51676;-64
2022/10/16 05:41:21;;;;;;;;;0.00;0.00;;;;;16.70;71.22;100557.31;5056707;28;45348;-63
2022/10/16 05:43:47;;;;;;;;;0.00;0.00;;;;;16.69;71.24;100544.16;5056707;28;45602;-65
2022/10/16 05:46:12;;;;;;;;;1.00;1.00;;;;;16.72;71.29;100552.78;5039649;28;45462;-64
2022/10/16 05:48:37;;;;;;;;;1.00;0.00;;;;;16.72;71.65;100560.75;5055975;28;45431;-64
2022/10/16 05:51:09;;;;;;;;;0.33;0.33;;;;;16.69;71.21;100558.28;5056910;28;45447;-62
2022/10/16 05:53:36;;;;;;;;;1.00;1.00;;;;;16.71;71.69;100552.84;5056010;28;45439;-63
2022/10/16 05:56:02;;;;;;;;;0.00;0.00;;;;;16.72;71.46;100543.97;5056017;28;45534;-65
2022/10/16 05:58:30;;;;;;;;;1.00;1.00;;;;;16.71;71.90;100550.19;5056290;28;45387;-63
2022/10/16 06:00:57;;;;;;;;;2.00;1.00;;;;;16.69;71.65;100557.44;5056125;28;45515;-64
2022/10/16 06:03:23;;;;;;;;;1.00;1.00;;;;;16.67;71.78;100556.66;5056478;28;45481;-65
2022/10/16 06:05:49;;;;;;;;;1.00;1.00;;;;;16.65;71.51;100555.91;5050372;28;46069;-66
2022/10/16 06:08:14;;;;;;;;;1.00;1.00;;;;;16.64;71.45;100557.69;5054349;28;45426;-65
2022/10/16 06:10:39;;;;;;;;;0.00;0.00;;;;;16.64;71.85;100557.69;5055821;28;45458;-65
2022/10/16 06:13:05;;;;;;;;;1.00;1.00;;;;;16.64;72.34;100551.53;5056355;28;45643;-65
2022/10/16 06:15:30;;;;;;;;;0.67;0.67;;;;;16.63;71.86;100556.00;5056017;28;45478;-65
2022/10/16 06:17:56;;;;;;;;;1.00;1.00;;;;;16.61;71.87;100563.22;5055502;28;45521;-64
2022/10/16 06:20:21;;;;;;;;;1.00;1.00;;;;;16.59;71.77;100562.44;5053828;28;45442;-66
2022/10/16 06:22:46;;;;;;;;;2.00;1.00;;;;;16.56;72.56;100559.97;5056182;28;45459;-62
2022/10/16 06:25:12;;;;;;;;;1.00;1.00;;;;;16.54;72.71;100557.41;5055955;28;45955;-64
2022/10/16 06:27:40;;;;;;;;;1.00;1.00;;;;;16.53;72.57;100554.84;5056074;28;45359;-66
2022/10/16 06:30:06;;;;;;;;;2.00;1.00;;;;;16.54;72.54;100551.25;5055517;28;45612;-64
2022/10/16 06:32:31;;;;;;;;;0.33;0.33;;;;;16.54;72.82;100556.56;5056200;28;45538;-63
2022/10/16 06:34:57;;;;;;;;;2.00;1.00;;;;;16.52;72.52;100553.13;5054797;28;46343;-63
2022/10/16 06:37:22;;;;;;;;;3.00;3.00;;;;;16.51;72.85;100549.63;5055952;28;45400;-65
2022/10/16 06:39:47;;;;;;;;;0.00;0.00;;;;;16.48;72.93;100548.97;5055839;28;45410;-65
2022/10/16 06:42:13;;;;;;;;;1.00;1.00;;;;;16.51;72.34;100557.59;5049774;28;45694;-63
2022/10/16 06:44:38;;;;;;;;;1.00;1.00;;;;;16.49;72.56;100562.13;5048317;28;46984;-63
2022/10/16 06:47:04;;;;;;;;;1.33;1.33;;;;;16.50;72.51;100569.16;5055242;28;53265;-63
2022/10/16 06:49:29;;;;;;;;;1.00;1.00;;;;;16.50;73.17;100571.81;5055962;28;45456;-65
2022/10/16 06:51:54;;;;;;;;;2.00;2.00;;;;;16.51;72.56;100577.97;5055685;28;45450;-65
2022/10/16 06:54:20;;;;;;;;;2.00;2.00;;;;;16.52;73.13;100579.69;5055491;28;56289;-63
2022/10/16 06:56:45;;;;;;;;;1.67;1.67;;;;;16.52;72.64;100590.28;5042982;28;50320;-64
2022/10/16 06:59:11;;;;;;;;;2.00;2.00;;;;;16.52;72.87;100596.50;5036653;28;45510;-63
2022/10/16 07:01:36;;;;;;;;;1.00;1.00;;;;;16.53;72.80;100603.50;5055625;28;45463;-69
2022/10/16 07:04:02;;;;;;;;;2.67;2.00;;;;;16.54;72.44;100602.53;5056082;28;45484;-69
2022/10/16 07:06:31;;;;;;;;;2.00;1.00;;;;;16.54;72.98;100607.00;5052473;28;45443;-68
2022/10/16 07:08:56;;;;;;;;;2.00;2.00;;;;;16.56;73.19;100611.28;5047194;28;45332;-62
2022/10/16 07:11:23;;;;;;;;;2.67;2.67;;;;;16.60;72.72;100611.09;5053818;28;45411;-61
2022/10/16 07:13:50;;;;;;;;;4.00;4.00;;;;;16.59;73.19;100620.84;5033972;28;47376;-61
2022/10/16 07:16:18;;;;;;;;;1.33;1.33;;;;;16.59;73.33;100628.81;5069594;28;45509;-62
2022/10/16 07:18:45;;;;;;;;;2.33;2.33;;;;;16.62;72.79;100618.00;5057361;28;45428;-62
2022/10/16 07:21:21;;;;;;;;;2.00;2.00;;;;;16.61;73.09;100611.00;5056518;28;45333;-61
2022/10/16 07:23:54;;;;;;;;;2.33;1.67;;;;;16.66;72.84;100626.66;5058558;28;46326;-62
2022/10/16 07:26:20;;;;;;;;;1.00;1.00;;;;;16.67;73.00;100625.72;5054608;28;45420;-61
2022/10/16 07:28:46;;;;;;;;;3.00;3.00;;;;;16.67;72.85;100623.91;5038554;28;45441;-62
2022/10/16 07:31:17;;;;;;;;;2.00;2.00;;;;;16.67;72.68;100631.03;5040904;28;45382;-63
2022/10/16 07:33:44;;;;;;;;;2.00;2.00;;;;;16.66;73.04;100630.16;5077751;28;45518;-61
2022/10/16 07:36:10;;;;;;;;;2.00;2.00;;;;;16.67;72.95;100636.34;5078723;28;45515;-62
2022/10/16 07:38:35;;;;;;;;;3.33;2.33;;;;;16.67;72.81;100636.34;5065703;28;45467;-61
2022/10/16 07:41:04;;;;;;;;;3.00;3.00;;;;;16.69;72.87;100642.41;5058295;28;45521;-61
2022/10/16 07:43:29;;;;;;;;;4.67;3.00;;;;;16.69;72.68;100653.88;5057965;28;45552;-62
2022/10/16 07:45:55;;;;;;;;;3.67;2.67;;;;;16.73;73.07;100659.84;5059716;28;45816;-61
2022/10/16 07:48:23;;;;;;;;;3.33;3.33;;;;;16.73;72.75;100662.50;5048625;28;45374;-60
2022/10/16 07:50:49;;;;;;;;;3.00;3.00;;;;;16.77;72.49;100674.72;5040604;28;45603;-64
2022/10/16 07:53:14;;;;;;;;;3.00;3.00;;;;;16.80;72.61;100665.69;5058128;28;45417;-61
2022/10/16 07:55:39;;;;;;;;;2.33;2.33;;;;;16.77;72.50;100654.31;5058173;28;45450;-61
2022/10/16 07:58:05;;;;;;;;;2.00;2.00;;;;;16.84;72.50;100653.94;5057349;28;45450;-60
2022/10/16 08:00:31;;;;;;;;;2.00;1.00;;;;;16.87;72.33;100654.63;5039991;28;45666;-60
2022/10/16 08:03:00;;;;;;;;;2.00;1.00;;;;;16.91;71.99;100669.41;5053335;28;45343;-60
2022/10/16 08:05:30;;;;;;;;;1.00;1.00;;;;;16.94;71.84;100674.53;5058485;28;45521;-60
2022/10/16 08:07:56;;;;;;;;;2.00;2.00;;;;;17.00;71.88;100684.78;5040445;28;45448;-60
2022/10/16 08:10:24;;;;;;;;;2.00;2.00;;;;;17.04;71.69;100679.31;5058216;28;45344;-60
2022/10/16 08:12:50;;;;;;;;;3.00;3.00;;;;;17.12;71.59;100690.31;5039369;28;46105;-60
2022/10/16 08:15:16;;;;;;;;;1.67;1.67;;;;;17.16;70.62;100694.47;5057936;28;45468;-60
2022/10/16 08:17:41;;;;;;;;;2.00;2.00;;;;;17.16;70.87;100691.81;5057809;28;45523;-60
2022/10/16 08:20:07;;;;;;;;;1.33;1.33;;;;;17.18;70.72;100684.63;5057721;28;45401;-60
2022/10/16 08:22:33;;;;;;;;;3.33;2.00;;;;;17.20;70.75;100672.09;5057550;28;46459;-60
2022/10/16 08:24:58;;;;;;;;;2.00;2.00;;;;;17.24;70.91;100681.56;5058047;28;45372;-60
2022/10/16 08:27:23;;;;;;;;;4.33;3.00;;;;;17.22;71.27;100687.00;5058137;28;45414;-60
2022/10/16 08:29:49;;;;;;;;;2.00;2.00;;;;;17.28;71.40;100679.59;5057701;28;45725;-60
2022/10/16 08:32:15;;;;;;;;;3.00;3.00;;;;;17.32;70.93;100686.41;5057402;28;45388;-60
2022/10/16 08:34:40;;;;;;;;;2.00;2.00;;;;;17.27;70.67;100678.72;5057757;28;45413;-60
2022/10/16 08:37:07;;;;;;;;;2.00;2.00;;;;;17.31;70.44;100688.22;5039052;28;45836;-60
2022/10/16 08:39:33;;;;;;;;;2.00;2.00;;;;;17.32;70.26;100692.59;5057536;28;45503;-60
2022/10/16 08:42:10;;;;;;;;;1.67;1.67;;;;;17.32;70.19;100686.41;5057271;28;45489;-60
2022/10/16 08:45:07;;;;;;;;;2.00;2.00;;;;;17.31;70.34;100682.91;5057377;28;45562;-60
2022/10/16 08:47:44;;;;;;;;;2.00;2.00;;;;;17.31;70.18;100684.72;5038712;28;45441;-60
2022/10/16 08:50:13;;;;;;;;;2.00;2.00;;;;;17.29;70.62;100694.59;5057429;28;45371;-60
2022/10/16 08:52:41;;;;;;;;;3.67;2.33;;;;;17.29;70.19;100700.75;5038068;28;48124;-60
2022/10/16 08:55:24;;;;;;;;;3.00;3.00;;;;;17.30;70.42;100702.47;5056242;28;45446;-60
2022/10/16 08:57:50;;;;;;;;;4.00;4.00;;;;;17.28;70.88;100698.22;5057178;28;45427;-60
2022/10/16 09:00:16;;;;;;;;;4.33;4.33;;;;;17.29;70.89;100703.41;5057223;28;45461;-60
2022/10/16 09:02:53;;;;;;;;;5.67;5.67;;;;;17.27;71.28;100693.81;5056646;28;46204;-60
2022/10/16 09:05:27;;;;;;;;;5.00;5.00;;;;;17.28;71.37;100707.03;5057062;28;46049;-60
2022/10/16 09:08:14;;;;;;;;;5.33;5.33;;;;;17.26;71.12;100703.59;5056704;28;45369;-60
2022/10/16 09:10:57;;;;;;;;;6.00;6.00;;;;;17.25;71.30;100696.59;5056502;28;45336;-60
2022/10/16 09:13:29;;;;;;;;;5.00;5.00;;;;;17.26;71.61;100716.91;5056120;28;45411;-60
2022/10/16 09:16:19;;;;;;;;;7.33;7.33;;;;;17.31;71.46;100721.94;5056917;28;45476;-60
2022/10/16 09:19:15;;;;;;;;;4.33;4.33;;;;;17.36;70.83;100706.56;5056816;28;45395;-60
2022/10/16 09:21:43;;;;;;;;;6.00;6.00;;;;;17.36;70.56;100694.13;5056754;28;45385;-60
2022/10/16 09:24:16;;;;;;;;;5.00;5.00;;;;;17.37;70.95;100694.97;5056430;28;45484;-60
2022/10/16 09:26:42;;;;;;;;;6.33;6.00;;;;;17.38;71.10;100691.34;5056525;28;45513;-61
2022/10/16 09:29:12;;;;;;;;;4.00;4.00;;;;;17.44;70.46;100696.31;5056802;28;45562;-60
2022/10/16 09:31:38;;;;;;;;;5.00;5.00;;;;;17.51;70.06;100707.41;5057039;28;45356;-60
2022/10/16 09:34:06;;;;;;;;;5.00;5.00;;;;;17.58;70.18;100706.06;5056307;28;45387;-60
2022/10/16 09:36:39;;;;;;;;;4.00;4.00;;;;;17.64;70.15;100703.88;5056645;28;45484;-60
2022/10/16 09:39:06;;;;;;;;;5.00;5.00;;;;;17.75;69.49;100700.53;5056710;28;45383;-60
2022/10/16 09:41:36;;;;;;;;;4.75;4.75;;;;;17.83;68.79;100714.22;5037927;28;45316;-60
2022/10/16 09:44:06;;;;;;;;;3.00;3.00;;;;;17.90;68.20;100722.69;5055613;28;46114;-60
2022/10/16 09:46:35;;;;;;;;;2.67;2.67;;;;;17.94;67.78;100718.00;5056512;28;45578;-60
2022/10/16 09:49:18;;;;;;;;;2.50;2.50;;;;;17.99;67.91;100714.09;5056753;28;45449;-60
2022/10/16 09:51:45;;;;;;;;;3.00;3.00;;;;;18.02;67.12;100710.38;5056630;28;45411;-60
2022/10/16 09:54:16;;;;;;;;;2.50;2.50;;;;;18.01;67.27;100711.34;5056172;28;45999;-60
2022/10/16 09:56:45;;;;;;;;;2.00;2.00;;;;;18.02;67.32;100708.56;5056257;28;45524;-60
2022/10/16 09:59:19;;;;;;;;;2.25;2.25;;;;;18.07;66.87;100705.63;5056236;28;45418;-60
2022/10/16 10:01:48;;;;;;;;;2.50;2.50;;;;;18.07;67.20;100695.81;5052968;28;45711;-61
2022/10/16 10:04:14;;;;;;;;;3.00;3.00;;;;;18.09;66.81;100693.91;5053895;28;45375;-61
2022/10/16 10:06:47;;;;;;;;;2.50;2.50;;;;;18.05;66.57;100688.88;5056767;28;45470;-60
2022/10/16 10:09:21;;;;;;;;;4.00;3.67;;;;;18.01;66.35;100682.06;5056443;28;45458;-60
2022/10/16 10:11:50;;;;;;;;;3.00;3.00;;;;;18.02;67.18;100678.44;5055676;28;45446;-60
2022/10/16 10:14:21;;;;;;;;;3.25;3.25;;;;;18.03;67.40;100673.03;5065993;28;45574;-60
2022/10/16 10:16:47;;;;;;;;;4.00;4.00;;;;;18.10;66.72;100676.13;5076375;28;45416;-60
2022/10/16 10:19:15;;;;;;;;;3.00;3.00;;;;;18.16;67.08;100673.09;5076254;28;45433;-61
2022/10/16 10:21:40;;;;;;;;;2.75;2.75;;;;;18.22;66.89;100678.00;5076272;28;46098;-60
2022/10/16 10:24:10;;;;;;;;;3.33;3.33;;;;;18.29;66.28;100673.09;5076195;28;46203;-60
2022/10/16 10:26:38;;;;;;;;;1.00;1.00;;;;;18.38;65.27;100677.00;5076149;28;45515;-60
2022/10/16 10:29:17;;;;;;;;;2.50;2.50;;;;;18.37;66.07;100676.13;5072208;28;45394;-60
2022/10/16 10:32:00;;;;;;;;;2.75;2.75;;;;;18.42;65.95;100683.81;5055498;28;45448;-60
2022/10/16 10:34:35;;;;;;;;;2.00;2.00;;;;;18.44;66.03;100676.56;5055185;28;45442;-61
2022/10/16 10:37:06;;;;;;;;;1.25;1.25;;;;;18.44;65.48;100688.06;5055664;28;45405;-61
2022/10/16 10:39:54;;;;;;;;;2.25;2.00;;;;;18.43;65.49;100683.72;5055709;28;45562;-60
2022/10/16 10:42:29;;;;;;;;;1.00;1.00;;;;;18.43;66.11;100683.72;5065352;28;45366;-60
2022/10/16 10:45:15;;;;;;;;;2.00;1.00;;;;;18.46;66.23;100675.53;5062973;28;46381;-60
2022/10/16 10:48:06;;;;;;;;;1.00;1.00;;;;;18.44;66.14;100684.56;5055045;28;45340;-60
2022/10/16 10:50:57;;;;;;;;;1.00;1.00;;;;;18.39;66.20;100689.34;5055445;28;45399;-61
2022/10/16 10:53:58;;;;;;;;;1.00;1.00;;;;;18.42;66.97;100689.13;5055811;28;45384;-60
2022/10/16 10:56:57;;;;;;;;;1.00;1.00;;;;;18.44;66.44;100687.22;5057526;28;46252;-60
2022/10/16 10:59:55;;;;;;;;;0.00;0.00;;;;;18.43;66.83;100680.19;5059294;28;45396;-60
2022/10/16 11:02:36;;;;;;;;;0.00;0.00;;;;;18.44;66.89;100680.09;5059482;28;45425;-60
2022/10/16 11:05:13;;;;;;;;;0.00;0.00;;;;;18.40;66.96;100669.72;5059205;28;45420;-60
2022/10/16 11:07:47;;;;;;;;;0.50;0.50;;;;;18.42;68.03;100673.16;5058953;28;46314;-60
2022/10/16 11:10:19;;;;;;;;;1.00;1.00;;;;;18.37;67.12;100654.81;5058459;28;45364;-60
2022/10/16 11:12:52;;;;;;;;;0.25;0.25;;;;;18.36;67.38;100652.28;5058887;28;45322;-60
2022/10/16 11:15:25;;;;;;;;;2.75;0.25;;;;;18.46;67.91;100653.38;5038916;28;45447;-60
2022/10/16 11:18:11;;;;;;;;;0.00;0.00;;;;;18.53;67.14;100670.63;5037206;28;48155;-60
2022/10/16 11:20:47;;;;;;;;;0.25;0.25;;;;;18.59;66.59;100662.22;5051118;28;45519;-60
2022/10/16 11:23:27;;;;;;;;;0.25;0.25;;;;;18.60;66.54;100658.59;5058684;28;45438;-61
2022/10/16 11:26:00;;;;;;;;;1.00;1.00;;;;;18.64;66.21;100657.41;5058465;28;45502;-61
2022/10/16 11:28:50;;;;;;;;;0.00;0.00;;;;;18.65;66.76;100658.28;5058559;28;45393;-61
2022/10/16 11:31:15;;;;;;;;;0.75;0.75;;;;;18.67;66.45;100656.34;5058167;28;45727;-61
2022/10/16 11:34:05;;;;;;;;;0.50;0.25;;;;;18.70;66.99;100656.16;5058564;28;45425;-61